Willow Grove, Texas
Current Conditions -  °F | °C
As of 12:55 PM on Monday 20 Oct 2014 (Local Time) from KTPL Reporting Station
Clear Clear  
Wind Chill: 24°   Ceiling: Unl
Heat Index: 24°   Visibility: 10mi
Dew Point: 16°   Wind: 0mph
Humidity: 61%   Direction: NA
Pressure: 30.07"   Gusts: NA
Location:  31.2688°N, 97.3985°W
Report Text: KTPL 201755Z AUTO 00000KT 10SM CLR 24/16 A3007 RMK AO1 10250 20140 57010
Loading
Personal Weather Stations






























Interactive Weather Map
Tropical Storm Tracking
New forecast layout! Learn more

10-Day Weather Forecast

Advertisements
Track Severe Weather on mobile